Time;durP1;ratioP1;P1;durP2;ratioP2;P2;SDS_P1;SDS_P2;PMS_P1;PMS_P2;Temp;Humidity;BMP_temperature;BMP_pressure;BME280_temperature;BME280_humidity;BME280_pressure;Samples;Min_cycle;Max_cycle;Signal;HPM_P1;HPM_P2
2023/10/15 00:00:16;;;;;;;14.82;3.70;;;6.50;99.90;;;;;;5056202;28;20025;-69
2023/10/15 00:02:43;;;;;;;26.65;5.35;;;6.40;99.90;;;;;;5056367;28;20033;-69
2023/10/15 00:05:12;;;;;;;18.60;4.68;;;6.30;99.90;;;;;;5056690;28;20025;-69
2023/10/15 00:07:38;;;;;;;20.05;5.05;;;6.30;99.90;;;;;;5056168;28;20116;-69
2023/10/15 00:10:09;;;;;;;16.95;5.05;;;6.40;99.90;;;;;;5056054;28;20042;-69
2023/10/15 00:12:34;;;;;;;18.73;5.03;;;6.40;99.90;;;;;;5056219;28;20039;-69
2023/10/15 00:15:00;;;;;;;13.60;4.20;;;6.30;99.90;;;;;;5056673;28;20033;-69
2023/10/15 00:17:27;;;;;;;16.35;4.50;;;6.30;99.90;;;;;;5055714;28;20033;-69
2023/10/15 00:19:53;;;;;;;23.30;5.18;;;6.20;99.90;;;;;;5056197;28;20448;-69
2023/10/15 00:22:19;;;;;;;17.17;4.72;;;6.10;99.90;;;;;;5055927;28;20033;-69
2023/10/15 00:24:44;;;;;;;15.88;4.45;;;6.10;99.90;;;;;;5056343;28;20021;-69
2023/10/15 00:27:10;;;;;;;26.00;5.35;;;6.00;99.90;;;;;;5056357;28;20056;-69
2023/10/15 00:29:35;;;;;;;21.65;4.43;;;6.00;99.90;;;;;;5055787;28;20145;-68
2023/10/15 00:32:03;;;;;;;16.27;5.05;;;6.10;99.90;;;;;;5056362;28;20025;-69
2023/10/15 00:34:30;;;;;;;24.17;5.57;;;6.30;99.90;;;;;;5056059;28;20111;-68
2023/10/15 00:36:55;;;;;;;14.43;4.82;;;6.40;99.90;;;;;;5055721;28;20021;-69
2023/10/15 00:39:21;;;;;;;20.15;5.10;;;6.50;99.90;;;;;;5055286;28;20045;-69
2023/10/15 00:41:47;;;;;;;15.32;4.65;;;6.50;99.90;;;;;;5056176;28;20494;-69
2023/10/15 00:44:14;;;;;;;20.58;5.25;;;6.60;99.90;;;;;;5056092;28;20021;-69
2023/10/15 00:46:41;;;;;;;24.25;5.03;;;6.60;99.90;;;;;;5055672;28;20533;-69
2023/10/15 00:49:10;;;;;;;17.58;4.93;;;6.70;99.90;;;;;;5055767;28;20029;-69
2023/10/15 00:51:40;;;;;;;18.33;4.93;;;6.60;99.90;;;;;;5055038;28;20052;-69
2023/10/15 00:54:12;;;;;;;17.55;3.80;;;6.60;99.90;;;;;;5055765;28;20032;-69
2023/10/15 00:56:38;;;;;;;18.17;4.32;;;6.60;99.90;;;;;;5055903;28;20116;-69
2023/10/15 00:59:08;;;;;;;24.17;5.60;;;6.60;99.90;;;;;;5055214;28;20498;-69
2023/10/15 01:01:37;;;;;;;14.55;4.88;;;6.70;99.90;;;;;;5055824;28;20605;-69
2023/10/15 01:04:06;;;;;;;22.35;6.40;;;6.80;99.90;;;;;;5055280;28;20061;-69
2023/10/15 01:06:35;;;;;;;22.08;5.82;;;6.90;99.90;;;;;;5055442;28;20025;-69
2023/10/15 01:09:10;;;;;;;18.63;5.82;;;7.00;99.90;;;;;;5055061;28;20426;-69
2023/10/15 01:11:37;;;;;;;20.80;6.00;;;7.00;99.90;;;;;;5055000;28;20025;-69
2023/10/15 01:14:03;;;;;;;12.77;5.00;;;7.00;99.90;;;;;;5055085;28;20478;-69
2023/10/15 01:16:34;;;;;;;21.08;5.57;;;7.10;99.90;;;;;;5055522;28;20040;-69
2023/10/15 01:19:15;;;;;;;17.92;4.90;;;7.10;99.90;;;;;;5055310;28;20147;-69
2023/10/15 01:21:51;;;;;;;15.23;5.70;;;7.10;99.90;;;;;;5055434;28;20017;-69
2023/10/15 01:24:18;;;;;;;18.08;6.05;;;7.00;99.90;;;;;;5055103;28;20087;-69
2023/10/15 01:26:51;;;;;;;14.20;5.95;;;6.90;99.90;;;;;;5055341;28;20021;-69
2023/10/15 01:29:21;;;;;;;18.92;7.82;;;6.90;99.90;;;;;;5054944;28;20059;-69
2023/10/15 01:31:51;;;;;;;19.05;8.55;;;6.80;99.90;;;;;;5054520;28;20029;-69
2023/10/15 01:34:21;;;;;;;25.08;7.85;;;6.80;99.90;;;;;;5054081;28;20037;-69
2023/10/15 01:36:47;;;;;;;22.40;12.25;;;6.80;99.90;;;;;;5054814;28;20110;-69
2023/10/15 01:39:21;;;;;;;28.20;12.93;;;6.80;99.90;;;;;;5054016;28;20045;-69
2023/10/15 01:41:50;;;;;;;23.38;12.68;;;7.00;99.90;;;;;;5054785;28;20025;-69
2023/10/15 01:44:19;;;;;;;29.70;16.05;;;7.20;99.90;;;;;;5054453;28;20483;-69
2023/10/15 01:46:48;;;;;;;30.55;17.17;;;7.30;99.90;;;;;;5054955;28;20473;-69
2023/10/15 01:49:46;;;;;;;24.15;15.50;;;7.40;99.90;;;;;;5054364;28;20040;-68
2023/10/15 01:52:08;;;;;;;26.70;14.95;;;7.50;99.90;;;;;;5053698;28;20025;-68
2023/10/15 01:54:36;;;;;;;24.73;15.38;;;7.60;99.90;;;;;;5054820;28;20029;-68
2023/10/15 01:57:09;;;;;;;23.63;14.52;;;7.60;99.90;;;;;;5054185;28;20382;-68
2023/10/15 02:00:03;;;;;;;22.95;11.40;;;7.60;99.90;;;;;;5054320;28;20364;-68
2023/10/15 02:02:23;;;;;;;17.67;9.77;;;7.60;99.90;;;;;;5053511;28;20024;-68
2023/10/15 02:04:50;;;;;;;20.17;9.48;;;7.70;99.90;;;;;;5054465;28;20468;-68
2023/10/15 02:07:19;;;;;;;16.40;8.95;;;7.70;99.90;;;;;;5054605;28;20021;-68
2023/10/15 02:09:45;;;;;;;18.13;6.93;;;7.80;99.90;;;;;;5053701;28;20538;-68
2023/10/15 02:12:12;;;;;;;14.13;5.68;;;7.80;99.90;;;;;;5054114;28;20032;-68
2023/10/15 02:14:42;;;;;;;17.17;5.53;;;7.90;99.90;;;;;;5053876;28;20032;-68
2023/10/15 02:17:13;;;;;;;12.15;4.63;;;7.80;99.90;;;;;;5054141;28;20035;-69
2023/10/15 02:19:40;;;;;;;15.27;4.80;;;7.80;99.90;;;;;;5053757;28;20487;-69
2023/10/15 02:22:07;;;;;;;13.25;5.32;;;7.70;99.90;;;;;;5053934;28;20142;-69
2023/10/15 02:24:34;;;;;;;10.88;4.70;;;7.70;99.90;;;;;;5054371;28;20021;-69
2023/10/15 02:27:05;;;;;;;13.68;4.80;;;7.80;99.90;;;;;;5053283;28;20043;-69
2023/10/15 02:32:21;;;;;;;9.23;3.50;;;7.70;99.90;;;;;;5153480;27;20374;-70
2023/10/15 02:34:50;;;;;;;9.90;3.50;;;7.70;99.90;;;;;;5152498;27;20118;-69
2023/10/15 02:37:18;;;;;;;10.02;3.30;;;7.70;99.90;;;;;;5152678;27;20031;-69
2023/10/15 02:39:49;;;;;;;12.52;3.80;;;7.60;99.90;;;;;;5152636;27;20034;-69
2023/10/15 02:42:16;;;;;;;11.45;4.10;;;7.70;99.90;;;;;;5153285;27;20023;-69
2023/10/15 02:44:41;;;;;;;10.57;3.83;;;7.60;99.90;;;;;;5152638;27;20050;-69
2023/10/15 02:47:10;;;;;;;11.43;4.80;;;7.60;99.90;;;;;;5152870;27;20076;-69
2023/10/15 02:49:49;;;;;;;12.15;4.28;;;7.60;99.90;;;;;;5152568;27;20023;-69
2023/10/15 02:52:19;;;;;;;10.07;3.80;;;7.60;99.90;;;;;;5153016;27;20079;-69
2023/10/15 02:54:45;;;;;;;9.50;3.83;;;7.60;99.90;;;;;;5152366;27;20476;-69
2023/10/15 02:57:20;;;;;;;11.10;4.47;;;7.60;99.90;;;;;;5152346;27;20106;-69
2023/10/15 02:59:55;;;;;;;8.52;3.72;;;7.50;99.90;;;;;;5152225;27;20110;-69
2023/10/15 03:02:21;;;;;;;7.68;4.22;;;7.50;99.90;;;;;;5152610;27;20439;-69
2023/10/15 03:04:54;;;;;;;11.95;4.32;;;7.50;99.90;;;;;;5152274;27;20051;-69
2023/10/15 03:07:35;;;;;;;8.65;4.57;;;7.50;99.90;;;;;;5152500;27;20026;-69
2023/10/15 03:10:03;;;;;;;10.82;4.50;;;7.50;99.90;;;;;;5152534;27;22309;-69
2023/10/15 03:12:33;;;;;;;12.48;4.47;;;7.50;99.90;;;;;;5152642;27;20098;-69
2023/10/15 03:15:00;;;;;;;12.77;4.70;;;7.50;99.90;;;;;;5152200;27;20031;-72
2023/10/15 03:17:29;;;;;;;15.63;4.07;;;7.40;99.90;;;;;;5151878;27;20042;-69
2023/10/15 03:19:56;;;;;;;9.00;3.83;;;7.40;99.90;;;;;;5152464;27;20026;-69
2023/10/15 03:22:29;;;;;;;7.63;3.63;;;7.40;99.90;;;;;;5152419;27;20030;-69
2023/10/15 03:24:59;;;;;;;11.27;3.85;;;7.30;99.90;;;;;;5152229;27;20019;-69
2023/10/15 03:27:28;;;;;;;10.90;3.83;;;7.40;99.90;;;;;;5151893;27;20023;-69
2023/10/15 03:29:56;;;;;;;5.57;3.40;;;7.40;99.90;;;;;;5151675;27;20055;-69
2023/10/15 03:32:31;;;;;;;12.43;3.28;;;7.40;99.90;;;;;;5152306;27;20365;-69
2023/10/15 03:35:05;;;;;;;9.77;3.28;;;7.40;99.90;;;;;;5151682;27;20358;-69
2023/10/15 03:37:32;;;;;;;8.65;3.53;;;7.40;99.90;;;;;;5151941;27;20051;-69
2023/10/15 03:39:57;;;;;;;9.55;3.63;;;7.40;99.90;;;;;;5151528;27;20015;-69
2023/10/15 03:42:26;;;;;;;12.07;3.00;;;7.50;99.90;;;;;;5144153;27;20026;-69
2023/10/15 03:44:59;;;;;;;6.85;2.85;;;7.40;99.90;;;;;;5138221;27;20127;-69
2023/10/15 03:47:24;;;;;;;6.75;2.45;;;7.50;99.90;;;;;;5137975;27;20026;-69
2023/10/15 03:49:51;;;;;;;8.85;3.22;;;7.50;99.90;;;;;;5137934;27;20031;-69
2023/10/15 03:52:21;;;;;;;4.82;2.55;;;7.50;99.90;;;;;;5137495;27;20037;-69
2023/10/15 03:54:49;;;;;;;5.00;2.15;;;7.50;99.90;;;;;;5137485;27;20024;-69
2023/10/15 03:57:23;;;;;;;5.80;1.83;;;7.50;99.90;;;;;;5137175;27;20015;-69
2023/10/15 03:59:52;;;;;;;9.80;1.60;;;7.60;99.90;;;;;;5137751;27;20027;-69
2023/10/15 04:02:27;;;;;;;4.70;1.65;;;7.60;99.90;;;;;;5137927;27;20031;-70
2023/10/15 04:05:07;;;;;;;3.13;1.10;;;7.60;99.90;;;;;;5136968;27;20027;-69
2023/10/15 04:07:39;;;;;;;7.95;1.30;;;7.70;99.90;;;;;;5137799;27;20026;-69
2023/10/15 04:10:06;;;;;;;4.72;1.75;;;7.70;99.90;;;;;;5137147;27;20023;-69
2023/10/15 04:12:34;;;;;;;5.20;1.90;;;7.60;99.90;;;;;;5137394;27;20110;-69
2023/10/15 04:15:00;;;;;;;6.68;2.60;;;7.60;99.90;;;;;;5137638;27;20131;-66
2023/10/15 04:17:26;;;;;;;12.95;3.65;;;7.50;99.90;;;;;;5137023;27;20024;-69
2023/10/15 04:19:52;;;;;;;10.82;3.83;;;7.40;99.90;;;;;;5137303;27;20023;-69
2023/10/15 04:22:18;;;;;;;11.30;4.57;;;7.50;99.90;;;;;;5137213;27;20509;-69
2023/10/15 04:24:50;;;;;;;15.60;5.50;;;7.40;99.90;;;;;;5136719;27;20034;-69
2023/10/15 04:27:17;;;;;;;11.68;5.32;;;7.40;99.90;;;;;;5137316;27;20081;-69
2023/10/15 04:29:54;;;;;;;17.55;6.32;;;7.40;99.90;;;;;;5136139;27;20025;-69
2023/10/15 04:32:28;;;;;;;13.38;5.65;;;7.40;99.90;;;;;;5137375;27;20062;-69
2023/10/15 04:35:01;;;;;;;15.93;7.38;;;7.30;99.90;;;;;;5136631;27;20030;-69
2023/10/15 04:37:27;;;;;;;14.45;7.82;;;7.30;99.90;;;;;;5137237;27;20019;-69
2023/10/15 04:39:54;;;;;;;14.90;7.15;;;7.40;99.90;;;;;;5136690;27;20020;-74
2023/10/15 04:42:21;;;;;;;14.45;7.38;;;7.30;99.90;;;;;;5137189;27;20015;-69
2023/10/15 04:44:49;;;;;;;16.45;7.40;;;7.30;99.90;;;;;;5136641;27;20023;-69
2023/10/15 04:47:19;;;;;;;13.95;8.07;;;7.40;99.90;;;;;;5136762;27;20023;-69
2023/10/15 04:49:47;;;;;;;18.67;7.75;;;7.40;99.90;;;;;;5135588;27;20023;-69
2023/10/15 04:52:15;;;;;;;16.73;8.00;;;7.40;99.90;;;;;;5136311;27;20023;-69
2023/10/15 04:54:40;;;;;;;15.85;7.65;;;7.40;99.90;;;;;;5134571;27;20023;-69
2023/10/15 04:57:06;;;;;;;22.40;8.93;;;7.50;99.90;;;;;;5136366;27;20041;-69
2023/10/15 04:59:32;;;;;;;14.70;7.80;;;7.50;99.90;;;;;;5136622;27;20348;-69
2023/10/15 05:01:58;;;;;;;16.55;9.27;;;7.50;99.90;;;;;;5136196;27;20529;-69
2023/10/15 05:04:25;;;;;;;13.73;7.78;;;7.50;99.90;;;;;;5136527;27;20027;-69
2023/10/15 05:06:50;;;;;;;19.38;8.23;;;7.50;99.90;;;;;;5136045;27;20019;-69
2023/10/15 05:09:21;;;;;;;17.17;7.88;;;7.50;99.90;;;;;;5136159;27;20114;-69
2023/10/15 05:11:49;;;;;;;16.08;7.07;;;7.40;99.90;;;;;;5136158;27;20054;-69
2023/10/15 05:14:15;;;;;;;14.35;6.60;;;7.40;99.90;;;;;;5136397;27;20411;-69
2023/10/15 05:16:40;;;;;;;13.73;6.63;;;7.30;99.90;;;;;;5136337;27;20023;-69
2023/10/15 05:19:06;;;;;;;15.88;7.93;;;7.30;99.90;;;;;;5135855;27;20106;-69
2023/10/15 05:21:32;;;;;;;13.88;8.55;;;7.30;99.90;;;;;;5135965;27;20027;-69
2023/10/15 05:23:58;;;;;;;18.52;9.70;;;7.30;99.90;;;;;;5135765;27;20179;-69
2023/10/15 05:26:25;;;;;;;16.67;9.45;;;7.30;99.90;;;;;;5135589;27;20054;-69
2023/10/15 05:28:51;;;;;;;19.90;10.23;;;7.30;99.90;;;;;;5135998;27;20080;-69
2023/10/15 05:31:16;;;;;;;21.75;11.60;;;7.30;99.90;;;;;;5135224;27;20051;-69
2023/10/15 05:33:42;;;;;;;24.27;12.45;;;7.30;99.90;;;;;;5135402;27;20023;-69
2023/10/15 05:36:08;;;;;;;26.60;12.40;;;7.30;99.90;;;;;;5135513;27;20037;-69
2023/10/15 05:38:33;;;;;;;25.75;13.63;;;7.20;99.90;;;;;;5136023;27;20110;-69
2023/10/15 05:40:59;;;;;;;24.30;14.18;;;7.30;99.90;;;;;;5135880;27;20485;-69
2023/10/15 05:43:26;;;;;;;24.75;14.20;;;7.20;99.90;;;;;;5135482;27;20023;-69
2023/10/15 05:45:52;;;;;;;25.13;14.95;;;7.20;99.90;;;;;;5135739;27;20031;-69
2023/10/15 05:48:18;;;;;;;28.10;13.85;;;7.20;99.90;;;;;;5135849;27;20038;-69
2023/10/15 05:50:48;;;;;;;31.13;16.02;;;7.20;99.90;;;;;;5135309;27;20065;-69
2023/10/15 05:53:15;;;;;;;27.92;14.70;;;7.20;99.90;;;;;;5135777;27;20016;-69
2023/10/15 05:55:40;;;;;;;29.17;15.00;;;7.20;99.90;;;;;;5135702;27;20020;-69
2023/10/15 05:58:07;;;;;;;28.55;15.70;;;7.20;99.90;;;;;;5135399;27;20031;-69
2023/10/15 06:00:39;;;;;;;28.27;15.85;;;7.20;99.90;;;;;;5134980;27;20030;-69
2023/10/15 06:03:06;;;;;;;26.13;15.25;;;7.20;99.90;;;;;;5135503;27;20031;-69
2023/10/15 06:05:31;;;;;;;28.75;16.15;;;7.20;99.90;;;;;;5135080;27;20031;-69
2023/10/15 06:07:57;;;;;;;25.65;15.93;;;7.20;99.90;;;;;;5135609;27;20377;-69
2023/10/15 06:10:23;;;;;;;27.90;16.08;;;7.30;99.90;;;;;;5135412;27;20027;-69
2023/10/15 06:12:48;;;;;;;27.17;16.05;;;7.30;99.90;;;;;;5134974;27;20034;-69
2023/10/15 06:15:15;;;;;;;24.48;15.25;;;7.30;99.90;;;;;;5135378;27;20088;-69
2023/10/15 06:17:40;;;;;;;31.00;15.18;;;7.30;99.90;;;;;;5135155;27;20029;-69
2023/10/15 06:20:14;;;;;;;33.03;16.35;;;7.30;99.90;;;;;;5134797;27;20461;-69
2023/10/15 06:22:40;;;;;;;;;;;7.30;99.90;;;;;;5135300;27;20023;-69
2023/10/15 06:25:08;;;;;;;24.75;15.07;;;7.40;99.90;;;;;;5135084;27;19903;-69
2023/10/15 06:27:35;;;;;;;32.30;17.23;;;7.50;99.90;;;;;;5134754;27;20019;-69
2023/10/15 06:30:05;;;;;;;25.67;15.00;;;7.50;99.90;;;;;;5134695;28;20031;-69
2023/10/15 06:32:31;;;;;;;28.45;16.38;;;7.50;99.90;;;;;;5134559;28;20076;-69
2023/10/15 06:34:56;;;;;;;28.20;15.50;;;7.60;99.90;;;;;;5134974;28;20056;-69
2023/10/15 06:37:22;;;;;;;28.88;15.60;;;7.50;99.90;;;;;;5134570;28;20019;-69
2023/10/15 06:39:47;;;;;;;26.50;15.75;;;7.60;99.90;;;;;;5135080;28;20027;-69
2023/10/15 06:42:13;;;;;;;23.92;15.30;;;7.50;99.90;;;;;;5135174;28;20035;-69
2023/10/15 06:44:38;;;;;;;27.55;15.05;;;7.60;99.90;;;;;;5134463;28;20023;-69
2023/10/15 06:47:04;;;;;;;33.97;15.75;;;7.70;99.90;;;;;;5135127;28;20031;-69
2023/10/15 06:49:29;;;;;;;28.38;15.45;;;7.80;99.90;;;;;;5134870;28;20027;-69
2023/10/15 06:51:55;;;;;;;24.80;13.88;;;7.80;99.90;;;;;;5134807;28;20034;-69
2023/10/15 06:54:20;;;;;;;20.10;12.43;;;7.80;99.90;;;;;;5135086;28;20071;-69
2023/10/15 06:56:46;;;;;;;27.08;12.55;;;7.70;99.90;;;;;;5134982;28;20102;-69
2023/10/15 06:59:11;;;;;;;23.42;12.23;;;7.80;99.90;;;;;;5134518;28;20483;-69
2023/10/15 07:01:38;;;;;;;21.70;12.23;;;7.90;99.90;;;;;;5134872;28;20072;-69
2023/10/15 07:04:07;;;;;;;22.08;12.13;;;7.90;99.90;;;;;;5134247;28;20063;-69
2023/10/15 07:06:33;;;;;;;24.25;11.80;;;7.80;99.90;;;;;;5134412;28;20535;-72
2023/10/15 07:08:59;;;;;;;17.98;10.52;;;7.80;99.90;;;;;;5134429;28;20032;-69
2023/10/15 07:11:26;;;;;;;19.85;10.70;;;7.90;99.90;;;;;;5133980;28;20030;-69
2023/10/15 07:13:52;;;;;;;16.90;10.05;;;7.90;99.90;;;;;;5134584;28;20461;-69
2023/10/15 07:16:19;;;;;;;17.40;10.15;;;8.00;99.90;;;;;;5134311;27;20024;-69
2023/10/15 07:18:45;;;;;;;21.25;9.05;;;7.90;99.90;;;;;;5138007;27;20072;-69
2023/10/15 07:21:11;;;;;;;14.18;8.82;;;7.90;99.90;;;;;;5138477;27;20079;-69
2023/10/15 07:23:37;;;;;;;15.20;8.38;;;8.00;99.90;;;;;;5138335;27;20497;-69
2023/10/15 07:26:03;;;;;;;12.75;8.35;;;8.10;99.90;;;;;;5138580;27;20521;-69
2023/10/15 07:28:29;;;;;;;14.57;7.55;;;8.20;99.90;;;;;;5138563;27;20033;-69
2023/10/15 07:30:55;;;;;;;10.90;6.90;;;8.30;99.90;;;;;;5137342;27;20489;-69
2023/10/15 07:33:21;;;;;;;13.23;6.70;;;8.20;99.90;;;;;;5138487;27;20468;-69
2023/10/15 07:35:48;;;;;;;11.77;6.75;;;8.20;99.90;;;;;;5138439;27;20084;-69
2023/10/15 07:38:13;;;;;;;19.15;6.95;;;8.10;99.90;;;;;;5137278;27;20019;-69
2023/10/15 07:40:40;;;;;;;10.73;6.72;;;8.10;99.90;;;;;;5137305;27;20027;-69
2023/10/15 07:43:08;;;;;;;8.30;6.68;;;8.10;99.90;;;;;;5138220;27;20076;-69
2023/10/15 07:45:34;;;;;;;8.98;6.03;;;8.10;99.90;;;;;;5137877;27;20023;-69
2023/10/15 07:48:01;;;;;;;10.27;5.85;;;;;;;;;;5138271;27;20356;-69
2023/10/15 07:50:28;;;;;;;9.77;5.88;;;8.10;99.90;;;;;;5137822;27;20055;-69
2023/10/15 07:52:54;;;;;;;13.48;6.40;;;8.10;99.90;;;;;;5137884;27;20515;-69
2023/10/15 07:55:23;;;;;;;9.50;5.53;;;8.10;99.90;;;;;;5138063;27;20019;-69
2023/10/15 07:57:49;;;;;;;8.52;5.65;;;8.20;99.90;;;;;;5137782;27;20036;-69
2023/10/15 08:00:15;;;;;;;6.40;4.28;;;8.20;99.90;;;;;;5137290;27;20042;-69
2023/10/15 08:02:43;;;;;;;9.68;4.72;;;8.20;99.90;;;;;;5137390;27;20035;-69
2023/10/15 08:05:08;;;;;;;13.80;5.32;;;8.20;99.90;;;;;;5137317;27;20035;-69
2023/10/15 08:07:36;;;;;;;9.93;3.88;;;8.30;99.90;;;;;;5137390;27;20027;-69
2023/10/15 08:10:03;;;;;;;8.13;3.60;;;8.20;99.90;;;;;;5137677;27;20121;-69
2023/10/15 08:12:28;;;;;;;10.55;3.53;;;8.30;99.90;;;;;;5137726;27;20526;-69
2023/10/15 08:14:55;;;;;;;6.32;3.40;;;8.40;99.90;;;;;;5137491;27;20019;-69
2023/10/15 08:17:20;;;;;;;6.85;3.30;;;8.50;99.90;;;;;;5137420;27;20026;-69
2023/10/15 08:19:46;;;;;;;5.43;2.75;;;8.40;99.90;;;;;;5137051;27;20019;-69
2023/10/15 08:22:12;;;;;;;8.43;2.78;;;8.40;99.90;;;;;;5137111;27;20027;-69
2023/10/15 08:24:38;;;;;;;5.70;2.38;;;8.50;99.90;;;;;;5136978;27;20461;-69
2023/10/15 08:27:05;;;;;;;3.13;2.30;;;9.00;99.90;;;;;;5137474;27;20114;-69
2023/10/15 08:29:31;;;;;;;7.50;2.30;;;9.60;99.90;;;;;;5137061;27;20058;-69
2023/10/15 08:31:57;;;;;;;7.55;2.42;;;10.50;99.90;;;;;;5136160;27;20505;-67
2023/10/15 08:34:23;;;;;;;5.75;1.58;;;10.50;99.90;;;;;;5136618;27;20072;-67
2023/10/15 08:36:50;;;;;;;2.78;1.48;;;;;;;;;;5136960;27;20086;-67
2023/10/15 08:39:17;;;;;;;3.42;1.60;;;;;;;;;;5136904;27;20111;-72
2023/10/15 08:41:45;;;;;;;2.92;1.20;;;;;;;;;;5136616;27;20039;-67
2023/10/15 08:44:12;;;;;;;2.65;1.30;;;10.10;99.90;;;;;;5136796;27;20492;-68
2023/10/15 08:46:42;;;;;;;3.47;1.52;;;10.70;48.40;;;;;;5136556;27;20464;-67
2023/10/15 08:49:09;;;;;;;3.03;1.50;;;;;;;;;;5137003;27;20027;-67
2023/10/15 08:51:37;;;;;;;4.90;1.50;;;10.00;50.30;;;;;;5136421;27;20027;-67
2023/10/15 08:54:04;;;;;;;2.65;1.50;;;9.80;92.10;;;;;;5136951;27;20118;-67
2023/10/15 08:56:32;;;;;;;2.47;1.20;;;;;;;;;;5136121;27;20073;-67
2023/10/15 08:58:59;;;;;;;3.65;1.67;;;;;;;;;;5136221;27;20026;-67
2023/10/15 09:01:26;;;;;;;2.22;1.00;;;;;;;;;;5135808;27;20110;-66
2023/10/15 09:03:52;;;;;;;2.17;1.38;;;;;;;;;;5136280;27;20035;-67
2023/10/15 09:06:22;;;;;;;3.05;1.40;;;;;;;;;;5135561;27;20027;-67
2023/10/15 09:08:49;;;;;;;3.90;1.30;;;;;;;;;;5135875;27;20023;-67
2023/10/15 09:11:16;;;;;;;4.05;1.25;;;;;;;;;;5135208;27;20070;-68
2023/10/15 09:13:44;;;;;;;3.38;1.20;;;;;;;;;;5136053;27;20384;-67
2023/10/15 09:16:13;;;;;;;5.65;1.25;;;;;;;;;;5136219;27;20101;-67
2023/10/15 09:18:43;;;;;;;2.33;1.08;;;;;;;;;;5136137;27;20019;-67
2023/10/15 09:21:23;;;;;;;2.90;1.08;;;;;;;;;;5136030;27;20023;-66
2023/10/15 09:23:53;;;;;;;2.83;1.00;;;;;;;;;;5135959;27;20035;-67
2023/10/15 09:26:20;;;;;;;2.47;0.85;;;;;;;;;;5135660;27;20031;-67
2023/10/15 09:28:51;;;;;;;3.95;1.00;;;;;;;;;;5135740;27;20027;-67
2023/10/15 09:31:20;;;;;;;3.40;1.00;;;;;;;;;;5134923;27;20077;-67
2023/10/15 09:33:51;;;;;;;3.28;0.77;;;;;;;;;;5135810;27;20027;-67
2023/10/15 09:36:19;;;;;;;1.60;0.90;;;;;;;;;;5135816;27;20015;-67
2023/10/15 09:38:47;;;;;;;5.28;1.35;;;;;;;;;;5136105;27;20033;-67
2023/10/15 09:41:15;;;;;;;1.75;1.17;;;;;;;;;;5134793;27;20038;-67
2023/10/15 09:43:48;;;;;;;2.00;1.10;;;;;;;;;;5135662;27;20384;-68
2023/10/15 09:46:16;;;;;;;3.70;1.50;;;;;;;;;;5135449;27;20062;-68
2023/10/15 09:48:45;;;;;;;3.63;1.40;;;;;;;;;;5135370;27;20027;-67
2023/10/15 09:51:13;;;;;;;2.22;0.98;;;;;;;;;;5135473;27;20023;-68
2023/10/15 09:53:41;;;;;;;2.65;1.25;;;;;;;;;;5135385;27;20029;-68
2023/10/15 09:56:12;;;;;;;2.50;0.93;;;;;;;;;;5135014;27;20523;-67
2023/10/15 09:58:38;;;;;;;4.70;1.42;;;;;;;;;;5135443;27;20418;-68
2023/10/15 10:01:08;;;;;;;2.83;1.13;;;;;;;;;;5135419;27;20027;-68
2023/10/15 10:03:47;;;;;;;2.83;0.65;;;;;;;;;;5135271;27;20053;-67
2023/10/15 10:06:36;;;;;;;4.60;1.02;;;;;;;;;;5135332;27;20024;-68
2023/10/15 10:09:22;;;;;;;2.97;1.02;;;;;;;;;;5134976;27;20023;-68
2023/10/15 10:12:11;;;;;;;1.88;1.00;;;;;;;;;;5134489;27;20035;-68
2023/10/15 10:14:44;;;;;;;6.03;1.13;;;;;;;;;;5134852;27;20019;-68
2023/10/15 10:17:11;;;;;;;2.77;1.00;;;;;;;;;;5135497;27;20031;-68
2023/10/15 10:19:38;;;;;;;1.45;0.63;;;;;;;;;;5134664;27;20027;-68
2023/10/15 10:22:05;;;;;;;2.58;0.90;;;;;;;;;;5135093;27;20106;-68
2023/10/15 10:24:42;;;;;;;3.08;1.13;;;;;;;;;;5134811;27;20077;-68
2023/10/15 10:27:13;;;;;;;2.85;0.73;;;;;;;;;;5135065;27;20030;-68
2023/10/15 10:29:41;;;;;;;3.45;1.15;;;;;;;;;;5134802;27;20469;-68
2023/10/15 10:32:13;;;;;;;1.88;0.65;;;;;;;;;;5133881;28;20054;-67
2023/10/15 10:34:42;;;;;;;2.67;0.90;;;;;;;;;;5134959;28;20023;-68
2023/10/15 10:37:20;;;;;;;3.05;0.90;;;10.40;1.00;;;;;;5134930;28;20350;-67
2023/10/15 10:39:48;;;;;;;2.53;1.13;;;10.80;1.00;;;;;;5134333;28;20028;-67
2023/10/15 10:42:22;;;;;;;1.88;0.80;;;10.70;1.00;;;;;;5134740;28;20053;-68
2023/10/15 10:44:49;;;;;;;1.95;0.68;;;;;;;;;;5135195;28;20034;-68
2023/10/15 10:47:21;;;;;;;2.17;0.95;;;11.00;1.00;;;;;;5134973;28;20058;-67
2023/10/15 10:49:55;;;;;;;1.65;0.73;;;11.40;1.00;;;;;;5134821;28;20027;-68
2023/10/15 10:52:30;;;;;;;1.40;0.70;;;11.60;1.00;;;;;;5136100;27;20076;-68
2023/10/15 10:55:16;;;;;;;3.70;0.90;;;11.80;99.90;;;;;;5138545;27;20027;-67
2023/10/15 10:57:43;;;;;;;0.88;0.60;;;;;;;;;;5138090;27;20473;-68
2023/10/15 11:00:12;;;;;;;2.92;0.77;;;;;;;;;;5138690;27;20094;-68
2023/10/15 11:02:39;;;;;;;3.67;0.95;;;;;;;;;;5138254;27;20035;-67
2023/10/15 11:05:07;;;;;;;1.95;0.70;;;12.40;99.90;;;;;;5138871;27;20070;-68
2023/10/15 11:07:40;;;;;;;1.45;0.80;;;;;;;;;;5139045;27;20023;-68
2023/10/15 11:10:07;;;;;;;1.95;0.80;;;11.90;99.90;;;;;;5138506;27;20080;-68
2023/10/15 11:12:32;;;;;;;2.70;0.55;;;11.40;1.00;;;;;;5138195;27;20023;-68
2023/10/15 11:15:07;;;;;;;2.55;0.90;;;;;;;;;;5138546;27;20031;-68
2023/10/15 11:17:36;;;;;;;3.03;0.90;;;;;;;;;;5138639;27;20018;-68
2023/10/15 11:20:04;;;;;;;2.42;0.70;;;;;;;;;;5138528;27;20051;-68
2023/10/15 11:22:36;;;;;;;4.97;0.98;;;;;;;;;;5138492;27;20491;-68
2023/10/15 11:25:01;;;;;;;2.28;1.10;;;11.80;1.00;;;;;;5138014;27;20019;-70
2023/10/15 11:27:27;;;;;;;2.85;1.05;;;;;;;;;;5138026;27;20037;-68
2023/10/15 11:29:55;;;;;;;3.85;1.20;;;11.30;99.90;;;;;;5138043;27;20034;-68
2023/10/15 11:32:21;;;;;;;4.25;1.10;;;11.40;99.90;;;;;;5138149;27;20031;-67
2023/10/15 11:34:49;;;;;;;3.70;1.20;;;;;;;;;;5138226;27;20030;-67
2023/10/15 11:37:19;;;;;;;1.83;0.70;;;;;;;;;;5137509;27;20016;-68
2023/10/15 11:39:47;;;;;;;2.95;0.90;;;;;;;;;;5138156;27;20023;-68
2023/10/15 11:42:19;;;;;;;3.25;1.00;;;;;;;;;;5137947;27;20023;-68
2023/10/15 11:44:55;;;;;;;3.95;0.98;;;;;;;;;;5138194;27;20080;-67
2023/10/15 11:47:25;;;;;;;3.35;0.90;;;;;;;;;;5137387;27;20025;-68
2023/10/15 11:49:54;;;;;;;4.18;0.80;;;;;;;;;;5137616;27;20531;-68
2023/10/15 11:52:22;;;;;;;2.75;0.82;;;;;;;;;;5137635;27;20030;-68
2023/10/15 11:54:49;;;;;;;4.20;1.10;;;;;;;;;;5137854;27;20027;-67
2023/10/15 11:57:21;;;;;;;5.22;0.90;;;;;;;;;;5137824;27;20031;-68
2023/10/15 11:59:48;;;;;;;4.15;0.98;;;;;;;;;;5137702;27;20380;-68
2023/10/15 12:02:15;;;;;;;4.88;1.10;;;;;;;;;;5137682;27;20059;-67
2023/10/15 12:04:42;;;;;;;6.53;1.10;;;;;;;;;;5137052;27;20023;-67
2023/10/15 12:07:16;;;;;;;3.58;0.75;;;;;;;;;;5137555;27;20031;-67
2023/10/15 12:09:47;;;;;;;4.97;1.17;;;;;;;;;;5137531;27;20030;-68
2023/10/15 12:12:13;;;;;;;1.80;1.05;;;12.50;1.00;;;;;;5137400;27;20028;-68
2023/10/15 12:14:39;;;;;;;5.85;1.00;;;12.30;13.20;;;;;;5137672;27;20445;-68
2023/10/15 12:17:04;;;;;;;3.53;1.25;;;12.30;99.90;;;;;;5136729;27;20030;-67
2023/10/15 12:19:31;;;;;;;3.35;0.90;;;12.20;1.00;;;;;;5137333;27;20027;-68
2023/10/15 12:21:58;;;;;;;4.80;0.88;;;;;;;;;;5137080;27;20027;-67
2023/10/15 12:24:25;;;;;;;5.32;1.27;;;;;;;;;;5137164;27;20039;-68
2023/10/15 12:26:51;;;;;;;2.38;0.73;;;;;;;;;;5136744;27;20023;-68
2023/10/15 12:29:28;;;;;;;4.28;0.80;;;;;;;;;;5137157;27;20410;-68
2023/10/15 12:31:55;;;;;;;2.92;0.98;;;13.20;1.00;;;;;;5136148;27;20150;-68
2023/10/15 12:34:21;;;;;;;2.58;0.82;;;13.60;1.00;;;;;;5136619;27;20052;-69
2023/10/15 12:36:47;;;;;;;4.32;1.00;;;13.20;1.00;;;;;;5136005;27;20019;-68
2023/10/15 12:39:14;;;;;;;2.63;0.63;;;;;;;;;;5136177;27;20023;-68
2023/10/15 12:41:40;;;;;;;3.08;0.80;;;13.70;99.90;;;;;;5136927;27;20114;-68
2023/10/15 12:44:14;;;;;;;4.25;1.00;;;13.50;99.90;;;;;;5136231;27;20059;-68
2023/10/15 12:46:40;;;;;;;;;;;13.20;1.00;;;;;;5137419;27;20034;-68
2023/10/15 12:49:08;;;;;;;4.93;1.23;;;;;;;;;;5136975;27;19903;-68
2023/10/15 12:51:35;;;;;;;3.78;0.73;;;;;;;;;;5136622;27;20023;-68
2023/10/15 12:54:01;;;;;;;2.97;1.08;;;12.90;99.90;;;;;;5136262;27;20106;-68
2023/10/15 12:56:30;;;;;;;3.72;0.73;;;12.60;99.90;;;;;;5136337;27;20019;-67
2023/10/15 12:58:58;;;;;;;1.15;0.77;;;;;;;;;;5136860;27;20023;-67
2023/10/15 13:01:24;;;;;;;2.72;0.90;;;;;;;;;;5136787;27;20023;-67
2023/10/15 13:03:50;;;;;;;2.80;1.05;;;12.10;15.30;;;;;;5136331;27;20031;-68
2023/10/15 13:06:16;;;;;;;6.70;0.98;;;12.20;99.90;;;;;;5136742;27;20134;-68
2023/10/15 13:08:44;;;;;;;2.97;0.90;;;11.50;1.00;;;;;;5136208;27;20436;-68
2023/10/15 13:11:13;;;;;;;4.32;0.90;;;;;;;;;;5136525;27;20049;-68
2023/10/15 13:13:41;;;;;;;3.53;0.88;;;;;;;;;;5136032;27;20076;-68
2023/10/15 13:16:11;;;;;;;3.08;0.95;;;;;;;;;;5135367;27;20106;-68
2023/10/15 13:18:39;;;;;;;2.20;0.90;;;;;;;;;;5136144;27;20019;-68
2023/10/15 13:21:08;;;;;;;8.05;1.27;;;;;;;;;;5135673;27;20107;-67
2023/10/15 13:23:35;;;;;;;4.20;0.77;;;;;;;;;;5136099;27;20030;-68